Česky Dansk Deutsch English Español Suomi Français Magyar Italiano Nederlands norsk Polski Português svenska Türkçe

 

Het Weer

Chrysoupoli Airport (Griekenland)

21:50, 17 augustus 2016 (GMT)

NWNNE
WE
SWSSE
Home            
Chrysoupoli Airport Alexandroupoli Airport Plovdiv Limnos Airport Thessaloniki Airport Canakkale Sofia Observ. Skiathos Island Larissa Airport Anchialos Airport Kozani Airport Gorna Orechovista Skopje-Petrovec Mytilini Airport Corlu Kastoria Airport Burgas Bandirma Tanagra Airport Ohrid Balikesir Camp Bondsteel Chios Airport

Om een weerknop op uw website of weblog te plaatsen, copieer onderstaande code en plak die in uw pagina. In het eerste vakje staat HTML-code, in het tweede vakje UBB-code.


Add to Google

Details

Visibility:Greater than 10000 m, 10 km, 32800 ft, 6.2 miles
Clouds:CAVOC
Temperature:21°C, 70°F
Dew-point:16°C, 61°F
Atmospheric pressure:1010 hPa, 757.6 mmHg, 29.83 inHg, 0.997 atm
Relative humidity:73.1 %
METAR:LGKV 172150Z 00000KT CAVOK 21/16 Q1010

Snelkoppelingen

Actuele weersinformatie van de hele wereld. Voeg locaties toe met het plus (+) symbool. Deze snelkoppelingen kunnen worden toegevoegd aan Google.

Lid van de Technetium groep

website free tracking
StatCounter NetStat W3C Validator

07-10-2022 08:18:21
astro.technetium.be money.technetium.be phote.technetium.be tafeltennistafel.technetium.be www.ligfiets.net